Terminal Aerodrome Forecast
Issued by NWS

Home | Current Version | Previous Version | Text Only | Print | Product List | Glossary On
Versions: 1 2 3 4 5 6 7 8 9 10 11 12 13 14 15 16 17 18 19 20
000
FTUS43 KFGF 251729 CCA
TAFDVL
TAF COR
KDVL 251729Z 2518/2618 12015G22KT P6SM -TSRA BKN080CB
      TEMPO 2518/2520 31010KT
     FM252000 09012KT P6SM -SHRA BKN040
      TEMPO 2522/2602 -TSRA BKN030CB
     FM260200 06009KT P6SM BKN040
     FM260500 27005KT P6SM BKN030=

USA.gov is the U.S. government's official web portal to all federal, state and local government web resources and services.